ENVA/TRD METAR and TAF weather

Enter ICAO airport designator
Station Type Date Time Source
ENVA METAR 2019/06/16 06:20 UTC NOAA

ENVA 160620Z 14004KT CAVOK 19/12 Q1012 NOSIG RMK WIND 670FT 09007KT


Station Type Date Time Source
ENVA Decoded METAR 2019/06/16 06:20 UTC NOAA

Trondheim / Vaernes, Norway (ENVA) 63-28N 010-56E 17M
Jun 16, 2019 - 02:20 AM EDT / 2019.06.16 0620 UTC
Wind: from the SE (140 degrees) at 5 MPH (4 KT):0
Visibility: greater than 7 mile(s):0
Temperature: 66 F (19 C)
Dew Point: 53 F (12 C)
Relative Humidity: 63%
Pressure (altimeter): 29.88 in. Hg (1012 hPa)
ob: ENVA 160620Z 14004KT CAVOK 19/12 Q1012 NOSIG RMK WIND 670FT 09007KT
cycle: 6

Station Type Date Time Source
ENVA TAF 2019/06/16 06:57 UTC NOAA

TAF ENVA 160500Z 1606/1706 10005KT 9999 SCT040 BKN070
BECMG 1611/1613 25010KT
TEMPO 1614/1618 4000 TSRA SCT040CB BKN060
TEMPO 1700/1706 RADZ BKN014

Example: see airport list